sensor_id;sensor_type;location;lat;lon;timestamp;pressure;altitude;pressure_sealevel;temperature;humidity
2875;BME280;1445;52.600;13.328;2023-05-03T00:00:18;101969.06;;;9.04;100.00
2875;BME280;1445;52.600;13.328;2023-05-03T00:02:48;101975.25;;;8.89;100.00
2875;BME280;1445;52.600;13.328;2023-05-03T00:05:13;101990.84;;;8.83;100.00
2875;BME280;1445;52.600;13.328;2023-05-03T00:07:41;101988.28;;;8.72;100.00
2875;BME280;1445;52.600;13.328;2023-05-03T00:10:08;101982.78;;;8.72;100.00
2875;BME280;1445;52.600;13.328;2023-05-03T00:12:36;101984.06;;;8.64;100.00
2875;BME280;1445;52.600;13.328;2023-05-03T00:15:02;101988.97;;;8.62;100.00
2875;BME280;1445;52.600;13.328;2023-05-03T00:17:28;101980.84;;;8.72;100.00
2875;BME280;1445;52.600;13.328;2023-05-03T00:19:53;101976.25;;;8.78;100.00
2875;BME280;1445;52.600;13.328;2023-05-03T00:22:20;101980.66;;;8.79;100.00
2875;BME280;1445;52.600;13.328;2023-05-03T00:24:47;101980.81;;;8.67;100.00
2875;BME280;1445;52.600;13.328;2023-05-03T00:27:14;101979.44;;;8.70;100.00
2875;BME280;1445;52.600;13.328;2023-05-03T00:29:39;101985.13;;;8.63;100.00
2875;BME280;1445;52.600;13.328;2023-05-03T00:32:04;101982.38;;;8.63;100.00
2875;BME280;1445;52.600;13.328;2023-05-03T00:34:30;101983.75;;;8.60;100.00
2875;BME280;1445;52.600;13.328;2023-05-03T00:36:55;101989.56;;;8.64;100.00
2875;BME280;1445;52.600;13.328;2023-05-03T00:39:21;101990.97;;;8.45;100.00
2875;BME280;1445;52.600;13.328;2023-05-03T00:41:46;101987.22;;;8.51;100.00
2875;BME280;1445;52.600;13.328;2023-05-03T00:44:11;101984.28;;;8.57;100.00
2875;BME280;1445;52.600;13.328;2023-05-03T00:46:37;101983.69;;;8.55;100.00
2875;BME280;1445;52.600;13.328;2023-05-03T00:49:02;101982.84;;;8.55;100.00
2875;BME280;1445;52.600;13.328;2023-05-03T00:51:28;101985.91;;;8.58;100.00
2875;BME280;1445;52.600;13.328;2023-05-03T00:53:53;101977.66;;;8.58;100.00
2875;BME280;1445;52.600;13.328;2023-05-03T00:56:19;101982.28;;;8.53;100.00
2875;BME280;1445;52.600;13.328;2023-05-03T00:58:45;101974.75;;;8.43;100.00
2875;BME280;1445;52.600;13.328;2023-05-03T01:01:11;101984.00;;;8.37;100.00
2875;BME280;1445;52.600;13.328;2023-05-03T01:03:37;101989.34;;;8.27;100.00
2875;BME280;1445;52.600;13.328;2023-05-03T01:08:46;101982.78;;;8.06;100.00
2875;BME280;1445;52.600;13.328;2023-05-03T01:11:22;101983.38;;;8.08;100.00
2875;BME280;1445;52.600;13.328;2023-05-03T01:14:00;101981.03;;;8.00;100.00
2875;BME280;1445;52.600;13.328;2023-05-03T01:16:36;101979.19;;;7.83;100.00
2875;BME280;1445;52.600;13.328;2023-05-03T01:19:12;101978.72;;;7.92;100.00
2875;BME280;1445;52.600;13.328;2023-05-03T01:21:41;101988.59;;;7.71;100.00
2875;BME280;1445;52.600;13.328;2023-05-03T01:24:17;101991.34;;;7.54;100.00
2875;BME280;1445;52.600;13.328;2023-05-03T01:26:46;101992.84;;;7.61;100.00
2875;BME280;1445;52.600;13.328;2023-05-03T01:29:11;101992.50;;;7.58;100.00
2875;BME280;1445;52.600;13.328;2023-05-03T01:31:43;101994.34;;;7.52;100.00
2875;BME280;1445;52.600;13.328;2023-05-03T01:36:43;101992.38;;;7.48;100.00
2875;BME280;1445;52.600;13.328;2023-05-03T01:39:19;102004.25;;;7.53;100.00
2875;BME280;1445;52.600;13.328;2023-05-03T01:41:49;101998.84;;;7.41;100.00
2875;BME280;1445;52.600;13.328;2023-05-03T01:44:16;101997.59;;;7.32;100.00
2875;BME280;1445;52.600;13.328;2023-05-03T01:46:43;101998.19;;;7.34;100.00
2875;BME280;1445;52.600;13.328;2023-05-03T01:49:09;101993.03;;;7.21;100.00
2875;BME280;1445;52.600;13.328;2023-05-03T01:51:34;101997.91;;;7.19;100.00
2875;BME280;1445;52.600;13.328;2023-05-03T01:54:00;101994.09;;;7.20;100.00
2875;BME280;1445;52.600;13.328;2023-05-03T01:56:25;102002.97;;;7.10;100.00
2875;BME280;1445;52.600;13.328;2023-05-03T01:58:50;101992.00;;;7.10;100.00
2875;BME280;1445;52.600;13.328;2023-05-03T02:01:16;101997.66;;;7.04;100.00
2875;BME280;1445;52.600;13.328;2023-05-03T02:03:41;102006.03;;;6.97;100.00
2875;BME280;1445;52.600;13.328;2023-05-03T02:06:07;101997.72;;;6.92;100.00
2875;BME280;1445;52.600;13.328;2023-05-03T02:08:32;101996.50;;;7.00;100.00
2875;BME280;1445;52.600;13.328;2023-05-03T02:10:57;102000.84;;;6.84;100.00
2875;BME280;1445;52.600;13.328;2023-05-03T02:13:23;102003.84;;;6.82;100.00
2875;BME280;1445;52.600;13.328;2023-05-03T02:15:48;102009.06;;;6.84;100.00
2875;BME280;1445;52.600;13.328;2023-05-03T02:18:14;102010.97;;;6.83;100.00
2875;BME280;1445;52.600;13.328;2023-05-03T02:20:44;102012.06;;;6.82;100.00
2875;BME280;1445;52.600;13.328;2023-05-03T02:23:09;102016.38;;;6.78;100.00
2875;BME280;1445;52.600;13.328;2023-05-03T02:25:35;102013.63;;;6.78;100.00
2875;BME280;1445;52.600;13.328;2023-05-03T02:28:00;102019.16;;;6.66;100.00
2875;BME280;1445;52.600;13.328;2023-05-03T02:30:26;102027.72;;;6.70;100.00
2875;BME280;1445;52.600;13.328;2023-05-03T02:32:51;102025.97;;;6.64;100.00
2875;BME280;1445;52.600;13.328;2023-05-03T02:35:16;102021.94;;;6.55;100.00
2875;BME280;1445;52.600;13.328;2023-05-03T02:37:42;102033.16;;;6.53;100.00
2875;BME280;1445;52.600;13.328;2023-05-03T02:40:08;102035.03;;;6.53;100.00
2875;BME280;1445;52.600;13.328;2023-05-03T02:42:36;102030.22;;;6.43;100.00
2875;BME280;1445;52.600;13.328;2023-05-03T02:45:02;102035.47;;;6.33;100.00
2875;BME280;1445;52.600;13.328;2023-05-03T02:47:28;102032.13;;;6.31;100.00
2875;BME280;1445;52.600;13.328;2023-05-03T02:49:53;102037.03;;;6.29;100.00
2875;BME280;1445;52.600;13.328;2023-05-03T02:52:18;102041.66;;;6.28;100.00
2875;BME280;1445;52.600;13.328;2023-05-03T02:54:44;102035.59;;;6.26;100.00
2875;BME280;1445;52.600;13.328;2023-05-03T02:57:11;102040.84;;;6.16;100.00
2875;BME280;1445;52.600;13.328;2023-05-03T02:59:37;102039.41;;;6.13;100.00
2875;BME280;1445;52.600;13.328;2023-05-03T03:02:02;102038.72;;;6.18;100.00
2875;BME280;1445;52.600;13.328;2023-05-03T03:04:27;102047.06;;;6.11;100.00
2875;BME280;1445;52.600;13.328;2023-05-03T03:06:53;102043.84;;;6.14;100.00
2875;BME280;1445;52.600;13.328;2023-05-03T03:09:19;102052.28;;;6.13;100.00
2875;BME280;1445;52.600;13.328;2023-05-03T03:11:44;102055.16;;;6.18;100.00
2875;BME280;1445;52.600;13.328;2023-05-03T03:14:10;102048.09;;;6.10;100.00
2875;BME280;1445;52.600;13.328;2023-05-03T03:16:35;102048.81;;;6.17;100.00
2875;BME280;1445;52.600;13.328;2023-05-03T03:19:01;102044.31;;;6.11;100.00
2875;BME280;1445;52.600;13.328;2023-05-03T03:21:26;102052.53;;;6.11;100.00
2875;BME280;1445;52.600;13.328;2023-05-03T03:23:53;102056.44;;;6.04;100.00
2875;BME280;1445;52.600;13.328;2023-05-03T03:26:19;102058.69;;;6.07;100.00
2875;BME280;1445;52.600;13.328;2023-05-03T03:28:45;102054.31;;;6.06;100.00
2875;BME280;1445;52.600;13.328;2023-05-03T03:31:10;102054.09;;;6.07;100.00
2875;BME280;1445;52.600;13.328;2023-05-03T03:33:35;102060.38;;;6.08;100.00
2875;BME280;1445;52.600;13.328;2023-05-03T03:36:01;102062.03;;;6.09;100.00
2875;BME280;1445;52.600;13.328;2023-05-03T03:38:27;102058.94;;;6.05;100.00
2875;BME280;1445;52.600;13.328;2023-05-03T03:40:52;102061.56;;;6.00;100.00
2875;BME280;1445;52.600;13.328;2023-05-03T03:43:18;102067.75;;;5.95;100.00
2875;BME280;1445;52.600;13.328;2023-05-03T03:45:44;102074.06;;;5.96;100.00
2875;BME280;1445;52.600;13.328;2023-05-03T03:48:09;102073.22;;;5.95;100.00
2875;BME280;1445;52.600;13.328;2023-05-03T03:50:35;102067.63;;;5.90;100.00
2875;BME280;1445;52.600;13.328;2023-05-03T03:53:01;102076.06;;;5.77;100.00
2875;BME280;1445;52.600;13.328;2023-05-03T03:55:26;102078.06;;;5.58;100.00
2875;BME280;1445;52.600;13.328;2023-05-03T03:57:52;102079.81;;;5.53;100.00
2875;BME280;1445;52.600;13.328;2023-05-03T04:00:17;102088.75;;;5.48;100.00
2875;BME280;1445;52.600;13.328;2023-05-03T04:02:43;102089.44;;;5.43;100.00
2875;BME280;1445;52.600;13.328;2023-05-03T04:05:08;102091.22;;;5.49;100.00
2875;BME280;1445;52.600;13.328;2023-05-03T04:07:34;102091.59;;;5.53;100.00
2875;BME280;1445;52.600;13.328;2023-05-03T04:09:59;102093.00;;;5.44;100.00
2875;BME280;1445;52.600;13.328;2023-05-03T04:12:24;102087.66;;;5.49;100.00
2875;BME280;1445;52.600;13.328;2023-05-03T04:14:50;102093.41;;;5.59;100.00
2875;BME280;1445;52.600;13.328;2023-05-03T04:17:15;102097.91;;;5.54;100.00
2875;BME280;1445;52.600;13.328;2023-05-03T04:19:41;102099.34;;;5.56;100.00
2875;BME280;1445;52.600;13.328;2023-05-03T04:22:07;102106.34;;;5.52;100.00
2875;BME280;1445;52.600;13.328;2023-05-03T04:24:33;102115.03;;;5.49;100.00
2875;BME280;1445;52.600;13.328;2023-05-03T04:26:59;102115.66;;;5.63;100.00
2875;BME280;1445;52.600;13.328;2023-05-03T04:29:28;102113.41;;;5.71;100.00
2875;BME280;1445;52.600;13.328;2023-05-03T04:31:54;102113.03;;;5.68;100.00
2875;BME280;1445;52.600;13.328;2023-05-03T04:34:19;102112.25;;;5.79;100.00
2875;BME280;1445;52.600;13.328;2023-05-03T04:36:46;102125.66;;;5.81;100.00
2875;BME280;1445;52.600;13.328;2023-05-03T04:39:11;102119.84;;;5.77;100.00
2875;BME280;1445;52.600;13.328;2023-05-03T04:41:37;102126.97;;;5.78;100.00
2875;BME280;1445;52.600;13.328;2023-05-03T04:44:04;102126.03;;;5.72;100.00
2875;BME280;1445;52.600;13.328;2023-05-03T04:46:30;102135.44;;;5.77;100.00
2875;BME280;1445;52.600;13.328;2023-05-03T04:48:55;102127.94;;;5.84;100.00
2875;BME280;1445;52.600;13.328;2023-05-03T04:51:22;102132.00;;;5.93;100.00
2875;BME280;1445;52.600;13.328;2023-05-03T04:53:48;102129.06;;;5.94;100.00
2875;BME280;1445;52.600;13.328;2023-05-03T04:56:13;102129.78;;;6.02;100.00
2875;BME280;1445;52.600;13.328;2023-05-03T04:58:39;102126.91;;;6.08;100.00
2875;BME280;1445;52.600;13.328;2023-05-03T05:01:04;102135.25;;;6.13;100.00
2875;BME280;1445;52.600;13.328;2023-05-03T05:03:31;102138.81;;;6.14;100.00
2875;BME280;1445;52.600;13.328;2023-05-03T05:05:57;102136.31;;;6.12;100.00
2875;BME280;1445;52.600;13.328;2023-05-03T05:08:23;102140.03;;;6.18;100.00
2875;BME280;1445;52.600;13.328;2023-05-03T05:10:48;102136.66;;;6.28;100.00
2875;BME280;1445;52.600;13.328;2023-05-03T05:13:14;102130.59;;;6.37;100.00
2875;BME280;1445;52.600;13.328;2023-05-03T05:15:39;102135.38;;;6.30;100.00
2875;BME280;1445;52.600;13.328;2023-05-03T05:18:05;102131.91;;;6.35;100.00
2875;BME280;1445;52.600;13.328;2023-05-03T05:20:31;102138.00;;;6.37;100.00
2875;BME280;1445;52.600;13.328;2023-05-03T05:22:56;102140.13;;;6.47;100.00
2875;BME280;1445;52.600;13.328;2023-05-03T05:25:22;102137.50;;;6.52;100.00
2875;BME280;1445;52.600;13.328;2023-05-03T05:27:47;102138.94;;;6.54;100.00
2875;BME280;1445;52.600;13.328;2023-05-03T05:30:13;102136.06;;;6.49;100.00
2875;BME280;1445;52.600;13.328;2023-05-03T05:32:38;102134.38;;;6.60;100.00
2875;BME280;1445;52.600;13.328;2023-05-03T05:35:04;102136.88;;;6.61;100.00
2875;BME280;1445;52.600;13.328;2023-05-03T05:37:30;102146.16;;;6.72;100.00
2875;BME280;1445;52.600;13.328;2023-05-03T05:39:55;102156.16;;;6.66;100.00
2875;BME280;1445;52.600;13.328;2023-05-03T05:42:21;102157.00;;;6.79;100.00
2875;BME280;1445;52.600;13.328;2023-05-03T05:44:46;102148.16;;;6.88;100.00
2875;BME280;1445;52.600;13.328;2023-05-03T05:47:12;102155.75;;;6.98;100.00
2875;BME280;1445;52.600;13.328;2023-05-03T05:49:37;102151.56;;;7.07;100.00
2875;BME280;1445;52.600;13.328;2023-05-03T05:52:03;102153.06;;;7.15;100.00
2875;BME280;1445;52.600;13.328;2023-05-03T05:54:29;102156.75;;;7.21;100.00
2875;BME280;1445;52.600;13.328;2023-05-03T05:56:54;102161.34;;;7.32;100.00
2875;BME280;1445;52.600;13.328;2023-05-03T05:59:19;102160.25;;;7.33;100.00
2875;BME280;1445;52.600;13.328;2023-05-03T06:01:45;102160.72;;;7.41;100.00
2875;BME280;1445;52.600;13.328;2023-05-03T06:04:14;102163.84;;;7.33;100.00
2875;BME280;1445;52.600;13.328;2023-05-03T06:06:40;102159.97;;;7.46;100.00
2875;BME280;1445;52.600;13.328;2023-05-03T06:09:06;102161.47;;;7.54;100.00
2875;BME280;1445;52.600;13.328;2023-05-03T06:11:33;102168.66;;;7.72;100.00
2875;BME280;1445;52.600;13.328;2023-05-03T06:13:59;102167.94;;;7.76;100.00
2875;BME280;1445;52.600;13.328;2023-05-03T06:16:25;102175.50;;;7.69;100.00
2875;BME280;1445;52.600;13.328;2023-05-03T06:18:50;102170.00;;;7.69;100.00
2875;BME280;1445;52.600;13.328;2023-05-03T06:21:16;102174.75;;;7.74;100.00
2875;BME280;1445;52.600;13.328;2023-05-03T06:23:42;102174.91;;;7.67;100.00
2875;BME280;1445;52.600;13.328;2023-05-03T06:26:07;102172.53;;;7.87;100.00
2875;BME280;1445;52.600;13.328;2023-05-03T06:28:33;102172.53;;;7.87;100.00
2875;BME280;1445;52.600;13.328;2023-05-03T06:30:59;102166.69;;;7.84;100.00
2875;BME280;1445;52.600;13.328;2023-05-03T06:33:24;102167.03;;;8.04;100.00
2875;BME280;1445;52.600;13.328;2023-05-03T06:35:50;102173.28;;;8.17;100.00
2875;BME280;1445;52.600;13.328;2023-05-03T06:38:16;102168.69;;;8.22;100.00
2875;BME280;1445;52.600;13.328;2023-05-03T06:40:46;102164.03;;;8.23;100.00
2875;BME280;1445;52.600;13.328;2023-05-03T06:43:12;102174.84;;;8.29;100.00
2875;BME280;1445;52.600;13.328;2023-05-03T06:45:38;102161.19;;;8.18;100.00
2875;BME280;1445;52.600;13.328;2023-05-03T06:48:04;102168.38;;;8.19;100.00
2875;BME280;1445;52.600;13.328;2023-05-03T06:50:30;102171.72;;;8.04;100.00
2875;BME280;1445;52.600;13.328;2023-05-03T06:52:56;102171.19;;;8.24;100.00
2875;BME280;1445;52.600;13.328;2023-05-03T06:55:21;102164.19;;;8.16;100.00
2875;BME280;1445;52.600;13.328;2023-05-03T06:57:46;102166.84;;;8.28;100.00
2875;BME280;1445;52.600;13.328;2023-05-03T07:00:13;102181.66;;;8.60;100.00
2875;BME280;1445;52.600;13.328;2023-05-03T07:02:39;102174.13;;;8.73;100.00
2875;BME280;1445;52.600;13.328;2023-05-03T07:05:04;102174.13;;;8.73;100.00
2875;BME280;1445;52.600;13.328;2023-05-03T07:07:31;102167.44;;;8.86;100.00
2875;BME280;1445;52.600;13.328;2023-05-03T07:09:57;102176.00;;;8.67;100.00
2875;BME280;1445;52.600;13.328;2023-05-03T07:12:22;102171.00;;;8.64;100.00
2875;BME280;1445;52.600;13.328;2023-05-03T07:14:53;102175.94;;;8.84;100.00
2875;BME280;1445;52.600;13.328;2023-05-03T07:17:19;102172.84;;;8.80;100.00
2875;BME280;1445;52.600;13.328;2023-05-03T07:19:46;102177.28;;;9.03;100.00
2875;BME280;1445;52.600;13.328;2023-05-03T07:22:13;102175.19;;;9.11;100.00
2875;BME280;1445;52.600;13.328;2023-05-03T07:24:38;102172.16;;;9.12;100.00
2875;BME280;1445;52.600;13.328;2023-05-03T07:27:04;102171.91;;;9.14;100.00
2875;BME280;1445;52.600;13.328;2023-05-03T07:29:29;102175.81;;;8.96;100.00
2875;BME280;1445;52.600;13.328;2023-05-03T07:31:55;102172.75;;;9.14;100.00
2875;BME280;1445;52.600;13.328;2023-05-03T07:34:20;102176.38;;;9.42;100.00
2875;BME280;1445;52.600;13.328;2023-05-03T07:36:46;102172.88;;;9.51;100.00
2875;BME280;1445;52.600;13.328;2023-05-03T07:39:11;102174.91;;;9.61;100.00
2875;BME280;1445;52.600;13.328;2023-05-03T07:41:37;102170.81;;;9.64;100.00
2875;BME280;1445;52.600;13.328;2023-05-03T07:44:02;102177.53;;;9.78;100.00
2875;BME280;1445;52.600;13.328;2023-05-03T07:46:28;102175.72;;;9.89;100.00
2875;BME280;1445;52.600;13.328;2023-05-03T07:48:59;102167.00;;;9.70;100.00
2875;BME280;1445;52.600;13.328;2023-05-03T07:51:24;102163.34;;;9.91;100.00
2875;BME280;1445;52.600;13.328;2023-05-03T07:53:54;102166.72;;;9.98;100.00
2875;BME280;1445;52.600;13.328;2023-05-03T07:56:21;102166.69;;;9.66;100.00
2875;BME280;1445;52.600;13.328;2023-05-03T07:58:46;102163.63;;;9.63;100.00
2875;BME280;1445;52.600;13.328;2023-05-03T08:01:12;102164.97;;;9.60;100.00
2875;BME280;1445;52.600;13.328;2023-05-03T08:03:37;102171.38;;;9.66;100.00
2875;BME280;1445;52.600;13.328;2023-05-03T08:06:03;102172.09;;;9.29;100.00
2875;BME280;1445;52.600;13.328;2023-05-03T08:08:28;102169.91;;;9.31;100.00
2875;BME280;1445;52.600;13.328;2023-05-03T08:10:56;102161.91;;;9.29;100.00
2875;BME280;1445;52.600;13.328;2023-05-03T08:13:22;102170.34;;;9.45;100.00
2875;BME280;1445;52.600;13.328;2023-05-03T08:15:48;102163.47;;;9.47;100.00
2875;BME280;1445;52.600;13.328;2023-05-03T08:18:13;102160.88;;;9.63;100.00
2875;BME280;1445;52.600;13.328;2023-05-03T08:20:39;102161.41;;;9.60;100.00
2875;BME280;1445;52.600;13.328;2023-05-03T08:23:04;102163.66;;;9.68;100.00
2875;BME280;1445;52.600;13.328;2023-05-03T08:25:30;102157.41;;;9.72;100.00
2875;BME280;1445;52.600;13.328;2023-05-03T08:27:55;102150.69;;;9.90;100.00
2875;BME280;1445;52.600;13.328;2023-05-03T08:30:21;102156.69;;;10.24;100.00
2875;BME280;1445;52.600;13.328;2023-05-03T08:32:47;102159.09;;;10.48;100.00
2875;BME280;1445;52.600;13.328;2023-05-03T08:35:12;102149.09;;;10.84;100.00
2875;BME280;1445;52.600;13.328;2023-05-03T08:37:43;102157.88;;;10.71;100.00
2875;BME280;1445;52.600;13.328;2023-05-03T08:40:09;102150.13;;;10.68;100.00
2875;BME280;1445;52.600;13.328;2023-05-03T08:42:44;102158.66;;;10.66;100.00
2875;BME280;1445;52.600;13.328;2023-05-03T08:45:12;102151.22;;;10.67;100.00
2875;BME280;1445;52.600;13.328;2023-05-03T08:47:39;102163.41;;;10.76;100.00
2875;BME280;1445;52.600;13.328;2023-05-03T08:50:10;102171.69;;;10.34;100.00
2875;BME280;1445;52.600;13.328;2023-05-03T08:52:36;102162.34;;;10.82;100.00
2875;BME280;1445;52.600;13.328;2023-05-03T08:55:03;102161.66;;;11.17;100.00
2875;BME280;1445;52.600;13.328;2023-05-03T08:57:29;102159.75;;;11.28;100.00
2875;BME280;1445;52.600;13.328;2023-05-03T08:59:55;102158.47;;;11.77;100.00
2875;BME280;1445;52.600;13.328;2023-05-03T09:02:25;102158.50;;;12.23;100.00
2875;BME280;1445;52.600;13.328;2023-05-03T09:04:51;102158.63;;;12.82;100.00
2875;BME280;1445;52.600;13.328;2023-05-03T09:07:16;102165.22;;;12.97;94.02
2875;BME280;1445;52.600;13.328;2023-05-03T09:09:44;102164.31;;;11.96;94.68
2875;BME280;1445;52.600;13.328;2023-05-03T09:12:10;102164.53;;;11.79;100.00
2875;BME280;1445;52.600;13.328;2023-05-03T09:14:43;102171.38;;;11.30;99.68
2875;BME280;1445;52.600;13.328;2023-05-03T09:17:16;102168.41;;;11.83;100.00
2875;BME280;1445;52.600;13.328;2023-05-03T09:19:54;102159.31;;;12.03;100.00
2875;BME280;1445;52.600;13.328;2023-05-03T09:22:30;102160.84;;;12.85;96.08
2875;BME280;1445;52.600;13.328;2023-05-03T09:24:58;102158.47;;;12.33;84.75
2875;BME280;1445;52.600;13.328;2023-05-03T09:27:24;102164.59;;;12.04;83.78
2875;BME280;1445;52.600;13.328;2023-05-03T09:29:50;102164.28;;;12.36;85.49
2875;BME280;1445;52.600;13.328;2023-05-03T09:32:17;102149.31;;;12.58;82.90
2875;BME280;1445;52.600;13.328;2023-05-03T09:34:43;102157.31;;;12.59;80.87
2875;BME280;1445;52.600;13.328;2023-05-03T09:37:09;102160.84;;;12.85;78.40
2875;BME280;1445;52.600;13.328;2023-05-03T09:39:35;102157.28;;;13.40;71.19
2875;BME280;1445;52.600;13.328;2023-05-03T09:42:15;102159.56;;;13.72;70.71
2875;BME280;1445;52.600;13.328;2023-05-03T09:44:46;102150.22;;;13.08;71.98
2875;BME280;1445;52.600;13.328;2023-05-03T09:47:18;102166.75;;;12.48;82.57
2875;BME280;1445;52.600;13.328;2023-05-03T09:49:46;102160.28;;;12.83;80.63
2875;BME280;1445;52.600;13.328;2023-05-03T09:52:11;102158.25;;;13.09;79.07
2875;BME280;1445;52.600;13.328;2023-05-03T09:54:37;102156.25;;;13.70;73.67
2875;BME280;1445;52.600;13.328;2023-05-03T09:57:04;102156.34;;;13.94;68.67
2875;BME280;1445;52.600;13.328;2023-05-03T09:59:35;102157.59;;;13.72;67.60
2875;BME280;1445;52.600;13.328;2023-05-03T10:02:06;102144.63;;;14.02;67.39
2875;BME280;1445;52.600;13.328;2023-05-03T10:07:07;102135.56;;;15.78;55.90
2875;BME280;1445;52.600;13.328;2023-05-03T10:09:43;102141.41;;;16.69;50.46
2875;BME280;1445;52.600;13.328;2023-05-03T10:12:10;102140.88;;;16.26;49.26
2875;BME280;1445;52.600;13.328;2023-05-03T10:14:39;102144.31;;;16.04;49.26
2875;BME280;1445;52.600;13.328;2023-05-03T10:17:15;102133.53;;;17.27;48.14
2875;BME280;1445;52.600;13.328;2023-05-03T10:20:40;102145.91;;;17.71;44.54
2875;BME280;1445;52.600;13.328;2023-05-03T10:25:28;102136.00;;;19.12;41.98
2875;BME280;1445;52.600;13.328;2023-05-03T10:28:00;102142.38;;;18.95;39.13
2875;BME280;1445;52.600;13.328;2023-05-03T10:30:37;102135.22;;;19.54;41.13
2875;BME280;1445;52.600;13.328;2023-05-03T10:35:40;102129.78;;;19.58;41.32
2875;BME280;1445;52.600;13.328;2023-05-03T10:38:16;102131.75;;;20.65;37.02
2875;BME280;1445;52.600;13.328;2023-05-03T10:40:43;102131.81;;;21.37;36.36
2875;BME280;1445;52.600;13.328;2023-05-03T10:45:58;102130.13;;;20.56;36.36
2875;BME280;1445;52.600;13.328;2023-05-03T10:48:24;102137.97;;;17.78;40.44
2875;BME280;1445;52.600;13.328;2023-05-03T10:50:50;102127.31;;;17.44;43.64
2875;BME280;1445;52.600;13.328;2023-05-03T10:53:36;102132.25;;;16.97;44.86
2875;BME280;1445;52.600;13.328;2023-05-03T10:56:20;102133.00;;;17.38;43.05
2875;BME280;1445;52.600;13.328;2023-05-03T10:58:48;102130.69;;;17.54;41.94
2875;BME280;1445;52.600;13.328;2023-05-03T11:01:17;102132.16;;;16.60;43.54
2875;BME280;1445;52.600;13.328;2023-05-03T11:06:50;102122.06;;;18.01;41.33
2875;BME280;1445;52.600;13.328;2023-05-03T11:09:29;102121.09;;;18.05;41.18
2875;BME280;1445;52.600;13.328;2023-05-03T11:11:54;102122.34;;;18.22;41.59
2875;BME280;1445;52.600;13.328;2023-05-03T11:14:21;102126.28;;;17.98;40.72
2875;BME280;1445;52.600;13.328;2023-05-03T11:16:46;102121.56;;;17.62;41.26
2875;BME280;1445;52.600;13.328;2023-05-03T11:19:14;102118.56;;;18.66;40.58
2875;BME280;1445;52.600;13.328;2023-05-03T11:21:41;102124.91;;;17.87;39.61
2875;BME280;1445;52.600;13.328;2023-05-03T11:24:07;102113.97;;;18.62;39.82
2875;BME280;1445;52.600;13.328;2023-05-03T11:26:38;102100.16;;;19.14;37.26
2875;BME280;1445;52.600;13.328;2023-05-03T11:29:04;102102.97;;;19.57;36.80
2875;BME280;1445;52.600;13.328;2023-05-03T11:31:30;102099.38;;;19.74;35.56
2875;BME280;1445;52.600;13.328;2023-05-03T11:33:56;102103.25;;;18.46;35.10
2875;BME280;1445;52.600;13.328;2023-05-03T11:36:21;102106.84;;;18.78;36.47
2875;BME280;1445;52.600;13.328;2023-05-03T11:38:47;102093.81;;;20.21;35.10
2875;BME280;1445;52.600;13.328;2023-05-03T11:41:14;102087.88;;;21.41;32.54
2875;BME280;1445;52.600;13.328;2023-05-03T11:43:44;102085.66;;;22.58;29.87
2875;BME280;1445;52.600;13.328;2023-05-03T11:46:11;102080.28;;;23.43;29.74
2875;BME280;1445;52.600;13.328;2023-05-03T11:48:37;102084.59;;;23.52;29.00
2875;BME280;1445;52.600;13.328;2023-05-03T11:51:07;102088.00;;;22.56;30.84
2875;BME280;1445;52.600;13.328;2023-05-03T11:53:36;102082.81;;;24.04;28.73
2875;BME280;1445;52.600;13.328;2023-05-03T11:56:06;102090.84;;;24.34;28.81
2875;BME280;1445;52.600;13.328;2023-05-03T11:58:33;102083.19;;;24.18;27.70
2875;BME280;1445;52.600;13.328;2023-05-03T12:00:58;102073.63;;;25.41;27.39
2875;BME280;1445;52.600;13.328;2023-05-03T12:03:25;102074.75;;;25.94;25.77
2875;BME280;1445;52.600;13.328;2023-05-03T12:05:51;102068.72;;;25.77;25.22
2875;BME280;1445;52.600;13.328;2023-05-03T12:08:20;102070.19;;;26.82;23.71
2875;BME280;1445;52.600;13.328;2023-05-03T12:10:46;102074.97;;;26.32;23.79
2875;BME280;1445;52.600;13.328;2023-05-03T12:13:13;102065.66;;;26.05;24.88
2875;BME280;1445;52.600;13.328;2023-05-03T12:15:39;102061.44;;;26.94;24.62
2875;BME280;1445;52.600;13.328;2023-05-03T12:18:11;102068.19;;;27.12;23.51
2875;BME280;1445;52.600;13.328;2023-05-03T12:20:38;102061.19;;;26.76;24.42
2875;BME280;1445;52.600;13.328;2023-05-03T12:23:07;102058.34;;;28.45;22.82
2875;BME280;1445;52.600;13.328;2023-05-03T12:25:33;102061.91;;;27.26;23.20
2875;BME280;1445;52.600;13.328;2023-05-03T12:28:01;102061.94;;;24.68;25.36
2875;BME280;1445;52.600;13.328;2023-05-03T12:30:27;102065.84;;;22.18;28.22
2875;BME280;1445;52.600;13.328;2023-05-03T12:32:53;102062.44;;;22.74;28.09
2875;BME280;1445;52.600;13.328;2023-05-03T12:35:19;102053.66;;;24.60;26.99
2875;BME280;1445;52.600;13.328;2023-05-03T12:37:46;102053.19;;;25.47;25.80
2875;BME280;1445;52.600;13.328;2023-05-03T12:40:13;102044.75;;;26.59;24.38
2875;BME280;1445;52.600;13.328;2023-05-03T12:42:41;102057.59;;;26.30;25.00
2875;BME280;1445;52.600;13.328;2023-05-03T12:45:08;102046.72;;;27.11;24.17
2875;BME280;1445;52.600;13.328;2023-05-03T12:47:36;102050.72;;;28.56;21.61
2875;BME280;1445;52.600;13.328;2023-05-03T12:50:03;102057.16;;;26.28;22.38
2875;BME280;1445;52.600;13.328;2023-05-03T12:52:29;102052.19;;;25.17;23.94
2875;BME280;1445;52.600;13.328;2023-05-03T12:54:58;102052.28;;;25.05;24.19
2875;BME280;1445;52.600;13.328;2023-05-03T12:57:24;102059.91;;;24.21;24.95
2875;BME280;1445;52.600;13.328;2023-05-03T12:59:49;102051.75;;;24.16;25.57
2875;BME280;1445;52.600;13.328;2023-05-03T13:02:18;102043.63;;;24.78;25.60
2875;BME280;1445;52.600;13.328;2023-05-03T13:04:44;102054.72;;;24.08;26.49
2875;BME280;1445;52.600;13.328;2023-05-03T13:07:10;102050.00;;;23.12;28.19
2875;BME280;1445;52.600;13.328;2023-05-03T13:09:39;102052.69;;;22.10;28.77
2875;BME280;1445;52.600;13.328;2023-05-03T13:12:05;102047.47;;;22.82;30.03
2875;BME280;1445;52.600;13.328;2023-05-03T13:14:31;102037.59;;;23.69;29.07
2875;BME280;1445;52.600;13.328;2023-05-03T13:16:56;102038.56;;;24.87;28.14